• Join FlightAware (Why Join?)
  • Login
  • US Flag 
01:58AM EDT


 

Airport Tracker/Info


-or-


 

Live Flight TrackerFlight Track Log ✈ AWE3497 ✈ 31-Mar-2014 ✈ KDCA - KCMH

Flight Track Log - Related Links

Times and Time Zones

All times are in EDT time to prevent confusion due to time zone crossing. See the AWE3497 flight status page for this flight to view local times or setup timezone preferences in your user account.

Time Position Orientation Groundspeed Altitude Reporting Facility
EDT Latitude Longitude Course Direction KTS MPH feet Rate Location/Type
03:57PM 38.8833 -77.0667 270° West 157 181 1,700  Level Potomac TRACON
03:58PM 38.9333 -77.1167 322° Northwest 230 265 4,600 2,880 Climbing Potomac TRACON
03:59PM 38.9000 -77.3038 270° West  Level FlightAware Approximate
04:00PM 38.9167 -77.3948 270° West  Level FlightAware Approximate
04:00PM 39.0083 -77.2558 305° West 253 291 10,600  Level Washington Center
04:01PM 38.9333 -77.4857 270° West  Level FlightAware Approximate
04:01PM 39.0003 -77.3731 265° West 279 321 12,400  Level Washington Center
04:02PM 38.9333 -77.5830 270° West  Level FlightAware Approximate
04:02PM 38.9942 -77.4986 266° West 319 367 15,500  Level Washington Center
04:03PM 38.9881 -77.6186 266° West 347 399 17,800 2,100 Climbing Washington Center
04:04PM 38.9839 -77.7333 267° West 360 414 19,800 2,100 Climbing Washington Center
04:05PM 38.9772 -77.8800 267° West 371 427 22,100 1,920 Climbing Washington Center
04:06PM 38.9706 -78.0025 266° West 376 433 23,700 1,620 Climbing Washington Center
04:07PM 38.9636 -78.1386 266° West 387 445 25,300 1,560 Climbing Washington Center
04:08PM 38.9647 -78.2828 271° West 387 445 26,900 960 Climbing Washington Center
04:09PM 38.9739 -78.4219 275° West 392 451 27,300 900 Climbing Washington Center
04:10PM 38.9831 -78.5639 275° West 398 458 28,800 1,320 Climbing Washington Center
04:11PM 38.9900 -78.7031 274° West 403 464 30,000 600 Climbing Washington Center
04:12PM 39.0006 -78.8503 275° West 409 471 30,000  Level Washington Center
04:13PM 39.0092 -78.9978 274° West 416 479 30,000  Level Washington Center
04:14PM 39.0172 -79.1475 274° West 422 486 30,000  Level Washington Center
04:15PM 39.0294 -79.2953 276° West 427 491 30,000  Level Washington Center
04:16PM 39.0369 -79.4506 274° West 427 491 30,000  Level Washington Center
04:17PM 39.0525 -79.6119 277° West 427 491 30,000  Level Washington Center
04:18PM 39.0619 -79.7647 275° West 427 491 30,000  Level Washington Center
04:19PM 39.0714 -79.9122 275° West 427 491 30,000  Level Washington Center
04:20PM 39.0703 -79.9886 269° West 422 486 30,000  Level Indianapolis Center
04:21PM 39.0792 -80.1417 274° West 422 486 30,000  Level Indianapolis Center
04:22PM 39.0900 -80.3222 274° West 422 486 30,000  Level Indianapolis Center
04:23PM 39.0986 -80.4725 274° West 422 486 30,000  Level Indianapolis Center
04:24PM 39.1239 -80.6183 283° West 421 484 30,000  Level Indianapolis Center
04:25PM 39.1644 -80.7600 290° West 421 484 30,000 -780 Level Indianapolis Center
04:26PM 39.2033 -80.9031 289° West 421 484 28,500 -1,680 Descending Indianapolis Center
04:27PM 39.2408 -81.0386 290° West 411 473 26,600 -1,920 Descending Indianapolis Center
04:28PM 39.2853 -81.2014 289° West 405 466 24,500 -1,800 Descending Indianapolis Center
04:29PM 39.3214 -81.3358 289° West 404 465 23,000 -1,500 Descending Indianapolis Center
04:30PM 39.3581 -81.4692 290° West 400 460 21,500 -1,500 Descending Indianapolis Center
04:31PM 39.3931 -81.5997 289° West 393 452 19,900 -1,500 Descending Indianapolis Center
04:32PM 39.4278 -81.7269 289° West 383 441 18,400 -1,500 Descending Indianapolis Center
04:33PM 39.4681 -81.8817 289° West 382 440 16,800 -1,620 Descending Indianapolis Center
04:34PM 39.5019 -82.0083 289° West 378 435 15,100 -1,680 Descending Indianapolis Center
04:34PM 39.5097 -82.0458 285° West 371 427 14,700 -1,380 Descending Indianapolis Center
04:35PM 39.5144 -82.0653 287° West 371 427 14,500 -1,440 Descending Indianapolis Center
04:35PM 39.5372 -82.1408 291° West 371 427 13,600 -1,500 Descending Indianapolis Center
04:36PM 39.5508 -82.1981 287° West 363 418 13,000 -1,560 Descending Indianapolis Center
04:36PM 39.5853 -82.2539 309° West 366 421 12,000 -1,920 Descending Indianapolis Center
04:37PM 39.6200 -82.2953 317° Northwest 366 421 11,100 -1,200 Descending Indianapolis Center
04:37PM 39.6589 -82.3411 318° Northwest 363 418 10,800 -720 Descending Indianapolis Center
04:38PM 39.6931 -82.3906 312° West 349 402 10,300 -900 Descending Indianapolis Center
04:38PM 39.7206 -82.4222 318° Northwest 318 366 9,900 -1,680 Descending Indianapolis Center
04:39PM 39.7536 -82.4650 315° West 268 308 8,600 -2,100 Descending Indianapolis Center
04:39PM 39.7767 -82.4908 319° Northwest 282 325 7,700 -1,980 Descending Indianapolis Center
04:40PM 39.8028 -82.5242 316° Northwest 274 315 6,800 -1,800 Descending Indianapolis Center
04:40PM 39.8325 -82.5622 315° West 282 325 5,900 -1,800 Descending Indianapolis Center
04:41PM 39.8633 -82.5961 320° Northwest 278 320 5,000 -2,040 Descending Indianapolis Center
04:41PM 39.9044 -82.6331 325° Northwest 276 318 3,800 -1,800 Descending Indianapolis Center
04:42PM 39.9253 -82.6522 325° Northwest 271 312 3,200 -1,020 Descending Indianapolis Center
04:42PM 39.9678 -82.6850 329° Northwest 274 315 2,800 -720 Descending Indianapolis Center
04:43PM 39.9819 -82.6992 323° Northwest 263 303 2,600 -300 Descending Indianapolis Center
04:43PM 39.9944 -82.7597 285° West 260 299 2,500 -240 Descending Indianapolis Center
04:44PM 39.9953 -82.7806 273° West 214 246 2,400 -960 Descending Indianapolis Center
04:45PM 39.9997 -82.8467 275° West 133 153 1,300 -600 Descending Indianapolis Center
04:45PM 40.0033 -82.8867 277° West 186 214 1,300  Level Indianapolis Center
04:47PM 39.9969 -82.8922 311° West  Level Estimated